Página principal
METAR-TAF:

METAR-TAF

Aeroportos :

Khanty-Mansiysk, Rússia

latitude: 61-01N, longitude: 069-02E, altura: 40 m

Observação actual do tempo

O boletim foi feito há 25 minutos, às 13:30 UTC
Vento calmo
Temperatura 15°C
Humidade 82%
Pressão 1012 hPa
Visibilidade 10 km ou mais
sem nuvens abaixo de 1500 metros e sem cumulonimbus

METAR: USHH 241330Z 00000MPS CAVOK 15/12 Q1012 R24/010060 NOSIG RMK QFE755

Hora: 16:55 (13:55 UTC)

Previsão

O boletim foi feito há 2 horas e 15 minutos, às 11:40 UTC
Previsão válida de 24 às 12 UTC a 25 às 12 UTC
Vento 6 kt de oes-sudoeste com rajadas de 16 kt
Visibilidade 10 km ou mais
Nuvens dispersasa uma altura de 3000 ft
Temporariamente
de 24 às 15 UTC a 25 às 04 UTC
Visibilidade: 3100 m
Nuvens dispersasa uma altura de 300 ft
neblina

TAF: USHH 241140Z 2412/2512 25003G08MPS 9999 SCT030 TEMPO 2415/2504 3100 BR SCT003

Observações e previsões do tempo de mais de 4000 aeroportos (mensagens METAR e TAF).

As estações disponíveis são os pontos amarelos e vermelhos sobre o mapa.

Mova o rato sobre o mapa para ver o nome da estação.

Depois clique no ponto para visualizar as observações e previsões meteorológicas.

Para alterar o mapa : clique nos botões verdes com uma cruz preta para aumentar o zoom; no botão verde com uma pitada de zoom; ou nas setas verdes para mapas adjacentes.


METAR-TAF: